createdAt,value
2018-12-27T00:00:04.973Z,0.00
2018-12-27T00:01:04.952Z,0.00
2018-12-27T00:02:04.939Z,0.00
2018-12-27T00:03:04.924Z,0.00
2018-12-27T00:04:04.922Z,0.00
2018-12-27T00:05:04.901Z,0.00
2018-12-27T00:06:04.892Z,0.00
2018-12-27T00:07:04.880Z,0.00
2018-12-27T00:08:05.735Z,0.00
2018-12-27T00:09:04.859Z,0.00
2018-12-27T00:10:04.848Z,0.00
2018-12-27T00:11:04.838Z,0.00
2018-12-27T00:12:04.826Z,0.00
2018-12-27T00:13:04.814Z,0.00
2018-12-27T00:14:04.805Z,0.00
2018-12-27T00:15:04.793Z,0.00
2018-12-27T00:16:04.783Z,0.00
2018-12-27T00:17:04.772Z,0.00
2018-12-27T00:18:04.760Z,0.00
2018-12-27T00:19:04.751Z,0.00
2018-12-27T00:20:04.750Z,0.00
2018-12-27T00:21:04.752Z,0.00
2018-12-27T00:22:04.756Z,0.00
2018-12-27T00:23:04.708Z,0.00
2018-12-27T00:24:04.701Z,0.00
2018-12-27T00:25:04.704Z,0.00
2018-12-27T00:26:04.706Z,0.00
2018-12-27T00:27:04.709Z,0.00
2018-12-27T00:28:04.649Z,0.00
2018-12-27T00:29:04.640Z,0.00
2018-12-27T00:30:04.629Z,0.00
2018-12-27T00:31:04.618Z,0.00
2018-12-27T00:32:04.619Z,0.00
2018-12-27T00:33:04.597Z,0.00
2018-12-27T00:34:04.588Z,0.00
2018-12-27T00:35:04.573Z,0.00
2018-12-27T00:36:04.561Z,0.00
2018-12-27T00:37:04.556Z,0.00
2018-12-27T00:38:04.549Z,0.00
2018-12-27T00:39:04.537Z,0.00
2018-12-27T00:40:04.521Z,0.00
2018-12-27T00:41:04.507Z,0.00
2018-12-27T00:42:04.495Z,0.00
2018-12-27T00:43:04.486Z,0.00
2018-12-27T00:44:04.474Z,0.00
2018-12-27T00:45:04.466Z,0.00
2018-12-27T00:46:04.455Z,0.00
2018-12-27T00:47:04.444Z,0.00
2018-12-27T00:48:04.438Z,0.00
2018-12-27T00:49:04.419Z,0.00
2018-12-27T00:50:04.408Z,0.00
2018-12-27T00:51:04.407Z,0.00
2018-12-27T00:52:04.434Z,0.00
2018-12-27T00:53:04.377Z,0.00
2018-12-27T00:54:04.367Z,0.00
2018-12-27T00:55:04.353Z,0.00
2018-12-27T00:56:04.345Z,0.00
2018-12-27T00:57:04.332Z,0.00
2018-12-27T00:58:04.322Z,0.00
2018-12-27T00:59:04.310Z,0.00
2018-12-27T01:00:04.298Z,0.00
2018-12-27T01:01:04.288Z,0.00
2018-12-27T01:02:04.277Z,0.00
2018-12-27T01:03:11.019Z,0.00
2018-12-27T01:04:28.735Z,0.00
2018-12-27T01:05:28.721Z,0.00
2018-12-27T01:06:28.711Z,0.00
2018-12-27T01:07:28.707Z,0.00
2018-12-27T01:08:28.696Z,0.00
2018-12-27T01:09:28.688Z,0.00
2018-12-27T01:10:28.670Z,0.00
2018-12-27T01:11:28.656Z,0.00
2018-12-27T01:12:28.645Z,0.00
2018-12-27T01:13:28.637Z,0.00
2018-12-27T01:14:28.622Z,0.00
2018-12-27T01:15:28.614Z,0.00
2018-12-27T01:16:28.601Z,0.00
2018-12-27T01:17:28.589Z,0.00
2018-12-27T01:18:28.617Z,0.00
2018-12-27T01:19:28.567Z,0.00
2018-12-27T01:20:28.556Z,0.00
2018-12-27T01:21:28.547Z,0.00
2018-12-27T01:22:28.533Z,0.00
2018-12-27T01:23:28.522Z,0.00
2018-12-27T01:24:28.511Z,0.00
2018-12-27T01:25:28.500Z,0.00
2018-12-27T01:26:28.489Z,0.00
2018-12-27T01:27:28.478Z,0.00
2018-12-27T01:28:28.475Z,0.00
2018-12-27T01:29:28.459Z,0.00
2018-12-27T01:30:28.445Z,0.00
2018-12-27T01:31:28.436Z,0.00
2018-12-27T01:32:28.427Z,0.00
2018-12-27T01:33:28.418Z,0.00
2018-12-27T01:34:28.404Z,0.00
2018-12-27T01:35:28.390Z,0.00
2018-12-27T01:36:28.380Z,0.00
2018-12-27T01:37:28.376Z,0.00
2018-12-27T01:38:28.356Z,0.00
2018-12-27T01:39:28.346Z,0.00
2018-12-27T01:40:28.334Z,0.00
2018-12-27T01:41:28.328Z,0.00
2018-12-27T01:42:28.312Z,0.00
2018-12-27T01:43:28.301Z,0.00
2018-12-27T01:44:28.294Z,0.00
2018-12-27T01:45:28.283Z,0.00
2018-12-27T01:46:28.269Z,0.00
2018-12-27T01:47:28.258Z,0.00
2018-12-27T01:48:28.251Z,0.00
2018-12-27T01:49:28.237Z,0.00
2018-12-27T01:50:28.225Z,0.00
2018-12-27T01:51:28.215Z,0.00
2018-12-27T01:52:28.204Z,0.00
2018-12-27T01:53:28.192Z,0.00
2018-12-27T01:54:28.181Z,0.00
2018-12-27T01:55:28.169Z,0.00
2018-12-27T01:56:28.162Z,0.00
2018-12-27T01:57:28.148Z,0.00
2018-12-27T01:58:28.140Z,0.00
2018-12-27T01:59:28.124Z,0.00
2018-12-27T02:00:28.117Z,0.00
2018-12-27T02:01:28.103Z,0.00
2018-12-27T02:02:28.091Z,0.00
2018-12-27T02:03:28.081Z,0.00
2018-12-27T02:04:28.068Z,0.00
2018-12-27T02:05:28.057Z,0.00
2018-12-27T02:06:28.049Z,0.00
2018-12-27T02:07:28.035Z,0.00
2018-12-27T02:08:28.025Z,0.00
2018-12-27T02:09:28.030Z,0.00
2018-12-27T02:10:28.008Z,0.00
2018-12-27T02:11:28.000Z,0.00
2018-12-27T02:12:28.013Z,0.00
2018-12-27T02:13:27.973Z,0.00
2018-12-27T02:14:27.962Z,0.00
2018-12-27T02:15:27.951Z,0.00
2018-12-27T02:16:27.934Z,0.00
2018-12-27T02:17:27.925Z,0.00
2018-12-27T02:18:27.912Z,0.00
2018-12-27T02:19:27.906Z,0.00
2018-12-27T02:20:27.894Z,0.00
2018-12-27T02:21:27.879Z,0.00
2018-12-27T02:22:27.868Z,0.00
2018-12-27T02:23:27.857Z,0.00
2018-12-27T02:24:27.853Z,0.00
2018-12-27T02:25:27.840Z,0.00
2018-12-27T02:26:27.828Z,0.00
2018-12-27T02:27:27.812Z,0.00
2018-12-27T02:28:27.802Z,0.00
2018-12-27T02:29:27.791Z,0.00
2018-12-27T02:30:27.784Z,0.00
2018-12-27T02:31:27.768Z,0.00
2018-12-27T02:32:27.798Z,0.00
2018-12-27T02:33:35.065Z,0.00
2018-12-27T02:34:52.215Z,0.00
2018-12-27T02:35:52.206Z,0.00
2018-12-27T02:36:52.200Z,0.00
2018-12-27T02:37:52.189Z,0.00
2018-12-27T02:38:52.173Z,0.00
2018-12-27T02:39:52.162Z,0.00
2018-12-27T02:40:52.161Z,0.00
2018-12-27T02:41:52.143Z,0.00
2018-12-27T02:42:52.134Z,0.00
2018-12-27T02:43:52.121Z,0.00
2018-12-27T02:44:52.108Z,0.00
2018-12-27T02:45:52.103Z,0.00
2018-12-27T02:46:52.088Z,0.00
2018-12-27T02:47:52.075Z,0.00
2018-12-27T02:48:52.064Z,0.00
2018-12-27T02:49:52.054Z,0.00
2018-12-27T02:50:52.042Z,0.00
2018-12-27T02:51:52.032Z,0.00
2018-12-27T02:52:52.025Z,0.00
2018-12-27T02:53:52.009Z,0.00
2018-12-27T02:54:52.006Z,0.00
2018-12-27T02:55:51.986Z,0.00
2018-12-27T02:56:51.976Z,0.00
2018-12-27T02:57:51.964Z,0.00
2018-12-27T02:58:51.953Z,0.00
2018-12-27T02:59:51.944Z,0.00
2018-12-27T03:00:51.933Z,0.00
2018-12-27T03:01:51.921Z,0.00
2018-12-27T03:02:51.911Z,0.00
2018-12-27T03:03:51.899Z,0.00
2018-12-27T03:04:51.889Z,0.00
2018-12-27T03:05:51.879Z,0.00
2018-12-27T03:06:51.864Z,0.00
2018-12-27T03:07:51.852Z,0.00
2018-12-27T03:08:51.844Z,0.00
2018-12-27T03:09:51.833Z,0.00
2018-12-27T03:10:51.826Z,0.00
2018-12-27T03:11:51.809Z,0.00
2018-12-27T03:12:51.798Z,0.00
2018-12-27T03:13:51.786Z,0.00
2018-12-27T03:14:51.775Z,0.00
2018-12-27T03:15:51.765Z,0.00
2018-12-27T03:16:51.763Z,0.00
2018-12-27T03:17:51.747Z,0.00
2018-12-27T03:18:51.735Z,0.00
2018-12-27T03:19:51.720Z,0.00
2018-12-27T03:20:51.711Z,0.00
2018-12-27T03:21:51.710Z,0.00
2018-12-27T03:22:51.687Z,0.00
2018-12-27T03:23:51.676Z,0.00
2018-12-27T03:24:51.665Z,0.00
2018-12-27T03:25:51.669Z,0.00
2018-12-27T03:26:51.646Z,0.00
2018-12-27T03:27:51.636Z,0.00
2018-12-27T03:28:51.621Z,0.00
2018-12-27T03:29:51.610Z,0.00
2018-12-27T03:30:51.607Z,0.00
2018-12-27T03:31:51.590Z,0.00
2018-12-27T03:32:51.603Z,0.00
2018-12-27T03:33:52.791Z,0.00
2018-12-27T03:34:51.559Z,0.00
2018-12-27T03:35:51.543Z,0.00
2018-12-27T03:36:51.531Z,0.00
2018-12-27T03:37:51.523Z,0.00
2018-12-27T03:38:51.509Z,0.00
2018-12-27T03:39:51.503Z,0.00
2018-12-27T03:40:51.487Z,0.00
2018-12-27T03:41:51.478Z,0.00
2018-12-27T03:42:51.467Z,0.00
2018-12-27T03:43:51.459Z,0.00
2018-12-27T03:44:51.451Z,0.00
2018-12-27T03:45:51.434Z,0.00
2018-12-27T03:46:51.420Z,0.00
2018-12-27T03:47:51.409Z,0.00
2018-12-27T03:48:51.398Z,0.00
2018-12-27T03:49:51.384Z,0.00
2018-12-27T03:50:51.373Z,0.00
2018-12-27T03:51:51.366Z,0.00
2018-12-27T03:52:51.349Z,0.00
2018-12-27T03:53:51.342Z,0.00
2018-12-27T03:54:51.336Z,0.00
2018-12-27T03:55:51.320Z,0.00
2018-12-27T03:56:51.307Z,0.00
2018-12-27T03:57:51.298Z,0.00
2018-12-27T03:58:51.285Z,0.00
2018-12-27T03:59:51.277Z,0.00
2018-12-27T04:00:51.266Z,0.00
2018-12-27T04:01:51.252Z,0.00
2018-12-27T04:02:51.245Z,0.00
2018-12-27T04:03:51.229Z,0.00
2018-12-27T04:04:51.216Z,0.00
2018-12-27T04:05:51.209Z,0.00
2018-12-27T04:06:51.196Z,0.00
2018-12-27T04:07:51.182Z,0.00
2018-12-27T04:08:51.179Z,0.00
2018-12-27T04:09:51.173Z,0.00
2018-12-27T04:10:51.213Z,0.00
2018-12-27T04:11:51.138Z,0.00
2018-12-27T04:12:51.128Z,0.00
2018-12-27T04:13:51.119Z,0.00
2018-12-27T04:14:51.112Z,0.00
2018-12-27T04:15:51.092Z,0.00
2018-12-27T04:16:51.087Z,0.00
2018-12-27T04:17:51.071Z,0.00
2018-12-27T04:18:51.067Z,0.00
2018-12-27T04:19:51.046Z,0.00
2018-12-27T04:20:51.091Z,0.00
2018-12-27T04:21:51.032Z,0.00
2018-12-27T04:22:51.012Z,0.00
2018-12-27T04:23:51.005Z,0.00
2018-12-27T04:24:50.996Z,0.00
2018-12-27T04:25:50.980Z,0.00
2018-12-27T04:26:50.974Z,0.00
2018-12-27T04:27:50.956Z,0.00
2018-12-27T04:28:50.950Z,0.00
2018-12-27T04:29:50.937Z,0.00
2018-12-27T04:30:50.923Z,0.00
2018-12-27T04:31:50.912Z,0.00
2018-12-27T04:32:50.903Z,0.00
2018-12-27T04:33:50.889Z,0.00
2018-12-27T04:34:50.879Z,0.00
2018-12-27T04:35:50.867Z,4.00
2018-12-27T04:36:50.855Z,4.00
2018-12-27T04:37:50.843Z,4.00
2018-12-27T04:38:50.835Z,4.00
2018-12-27T04:39:50.825Z,4.00
2018-12-27T04:40:50.811Z,4.00
2018-12-27T04:41:50.799Z,4.00
2018-12-27T04:42:50.787Z,4.00
2018-12-27T04:43:50.777Z,4.00
2018-12-27T04:44:50.765Z,4.00
2018-12-27T04:45:50.753Z,4.00
2018-12-27T04:46:50.744Z,4.00
2018-12-27T04:47:50.736Z,4.00
2018-12-27T04:48:50.719Z,4.00
2018-12-27T04:49:50.714Z,4.00
2018-12-27T04:50:50.703Z,0.00
2018-12-27T04:51:50.692Z,0.00
2018-12-27T04:52:50.677Z,4.00
2018-12-27T04:53:50.668Z,4.00
2018-12-27T04:54:50.668Z,4.00
2018-12-27T04:55:50.678Z,0.00
2018-12-27T04:56:50.682Z,0.00
2018-12-27T04:57:50.624Z,0.00
2018-12-27T04:58:50.622Z,0.00
2018-12-27T04:59:50.621Z,0.00
2018-12-27T05:00:50.624Z,0.00
2018-12-27T05:01:50.572Z,0.00
2018-12-27T05:02:50.565Z,0.00
2018-12-27T05:03:50.548Z,0.00
2018-12-27T05:04:50.537Z,0.00
2018-12-27T05:05:50.533Z,0.00
2018-12-27T05:06:50.519Z,0.00
2018-12-27T05:07:50.504Z,0.00
2018-12-27T05:08:50.541Z,0.00
2018-12-27T05:09:50.480Z,0.00
2018-12-27T05:10:50.473Z,0.00
2018-12-27T05:11:50.459Z,0.00
2018-12-27T05:12:50.450Z,0.00
2018-12-27T05:13:50.434Z,0.00
2018-12-27T05:14:50.425Z,0.00
2018-12-27T05:15:50.421Z,0.00
2018-12-27T05:16:50.407Z,0.00
2018-12-27T05:17:50.391Z,0.00
2018-12-27T05:18:50.395Z,0.00
2018-12-27T05:19:50.366Z,0.00
2018-12-27T05:20:50.361Z,0.00
2018-12-27T05:21:50.355Z,0.00
2018-12-27T05:22:50.338Z,0.00
2018-12-27T05:23:50.322Z,0.00
2018-12-27T05:24:50.310Z,0.00
2018-12-27T05:25:50.298Z,0.00
2018-12-27T05:26:50.287Z,0.00
2018-12-27T05:27:50.277Z,0.00
2018-12-27T05:28:50.264Z,0.00
2018-12-27T05:29:50.258Z,0.00
2018-12-27T05:30:50.241Z,0.00
2018-12-27T05:31:51.733Z,0.00
2018-12-27T05:32:50.218Z,0.00
2018-12-27T05:33:50.207Z,0.00
2018-12-27T05:34:50.196Z,0.00
2018-12-27T05:35:50.185Z,0.00
2018-12-27T05:36:50.181Z,0.00
2018-12-27T05:37:50.160Z,0.00
2018-12-27T05:38:50.149Z,0.00
2018-12-27T05:39:50.146Z,0.00
2018-12-27T05:40:50.130Z,0.00
2018-12-27T05:41:50.120Z,0.00
2018-12-27T05:42:50.105Z,0.00
2018-12-27T05:43:50.098Z,0.00
2018-12-27T05:44:50.081Z,0.00
2018-12-27T05:45:50.071Z,0.00
2018-12-27T05:46:50.059Z,0.00
2018-12-27T05:47:50.050Z,0.00
2018-12-27T05:48:50.047Z,0.00
2018-12-27T05:49:50.025Z,0.00
2018-12-27T05:50:50.013Z,0.00
2018-12-27T05:51:50.004Z,0.00
2018-12-27T05:52:49.990Z,0.00
2018-12-27T05:53:49.979Z,0.00
2018-12-27T05:54:49.971Z,0.00
2018-12-27T05:55:49.957Z,0.00
2018-12-27T05:56:49.947Z,0.00
2018-12-27T05:57:49.939Z,0.00
2018-12-27T05:58:49.922Z,0.00
2018-12-27T05:59:49.918Z,0.00
2018-12-27T06:00:49.906Z,0.00
2018-12-27T06:01:49.889Z,0.00
2018-12-27T06:02:49.878Z,0.00
2018-12-27T06:03:49.869Z,0.00
2018-12-27T06:04:49.854Z,0.00
2018-12-27T06:05:49.847Z,0.00
2018-12-27T06:06:49.832Z,0.00
2018-12-27T06:07:49.823Z,0.00
2018-12-27T06:08:49.810Z,0.00
2018-12-27T06:09:49.801Z,0.00
2018-12-27T06:10:49.788Z,0.00
2018-12-27T06:11:49.775Z,0.00
2018-12-27T06:12:49.763Z,0.00
2018-12-27T06:13:49.753Z,0.00
2018-12-27T06:14:49.742Z,0.00
2018-12-27T06:15:49.728Z,0.00
2018-12-27T06:16:49.719Z,0.00
2018-12-27T06:17:49.710Z,0.00
2018-12-27T06:18:49.702Z,0.00
2018-12-27T06:19:49.685Z,0.00
2018-12-27T06:20:49.673Z,0.00
2018-12-27T06:21:49.665Z,0.00
2018-12-27T06:22:49.650Z,0.00
2018-12-27T06:23:49.640Z,0.00
2018-12-27T06:24:49.636Z,0.00
2018-12-27T06:25:49.619Z,0.00
2018-12-27T06:26:49.607Z,0.00
2018-12-27T06:27:49.594Z,0.00
2018-12-27T06:28:49.585Z,0.00
2018-12-27T06:29:49.577Z,0.00
2018-12-27T06:30:49.560Z,0.00
2018-12-27T06:31:49.548Z,0.00
2018-12-27T06:32:49.543Z,0.00
2018-12-27T06:33:49.528Z,0.00
2018-12-27T06:34:49.512Z,0.00
2018-12-27T06:35:49.504Z,0.00
2018-12-27T06:36:49.492Z,4.00
2018-12-27T06:37:49.481Z,4.00
2018-12-27T06:38:49.469Z,4.00
2018-12-27T06:39:49.457Z,4.00
2018-12-27T06:40:49.444Z,4.00
2018-12-27T06:41:49.436Z,4.00
2018-12-27T06:42:49.424Z,4.00
2018-12-27T06:43:49.410Z,4.00
2018-12-27T06:44:49.401Z,4.00
2018-12-27T06:45:49.388Z,4.00
2018-12-27T06:46:49.377Z,4.00
2018-12-27T06:47:49.365Z,8.00
2018-12-27T06:48:49.355Z,4.00
2018-12-27T06:49:49.346Z,8.00
2018-12-27T06:50:49.337Z,8.00
2018-12-27T06:51:49.325Z,12.00
2018-12-27T06:52:49.309Z,12.00
2018-12-27T06:53:49.299Z,16.00
2018-12-27T06:54:49.289Z,16.00
2018-12-27T06:55:49.276Z,16.00
2018-12-27T06:56:49.267Z,20.00
2018-12-27T06:57:49.257Z,24.00
2018-12-27T06:58:49.242Z,24.00
2018-12-27T06:59:49.232Z,32.00
2018-12-27T07:00:49.221Z,40.00
2018-12-27T07:01:49.210Z,44.00
2018-12-27T07:02:49.198Z,48.00
2018-12-27T07:03:49.187Z,52.00
2018-12-27T07:04:49.264Z,56.00
2018-12-27T07:05:49.166Z,68.00
2018-12-27T07:06:49.155Z,72.00
2018-12-27T07:07:49.142Z,76.00
2018-12-27T07:08:49.134Z,96.00
2018-12-27T07:09:49.120Z,104.00
2018-12-27T07:10:49.114Z,108.00
2018-12-27T07:11:49.097Z,124.00
2018-12-27T07:12:49.088Z,144.00
2018-12-27T07:13:49.074Z,164.00
2018-12-27T07:14:49.062Z,180.00
2018-12-27T07:15:49.054Z,200.00
2018-12-27T07:16:49.039Z,220.00
2018-12-27T07:17:49.025Z,244.00
2018-12-27T07:18:49.024Z,264.00
2018-12-27T07:19:49.017Z,292.00
2018-12-27T07:20:48.994Z,320.00
2018-12-27T07:21:48.982Z,340.00
2018-12-27T07:22:48.972Z,360.00
2018-12-27T07:23:48.958Z,384.00
2018-12-27T07:24:48.951Z,400.00
2018-12-27T07:25:48.936Z,416.00
2018-12-27T07:26:48.925Z,432.00
2018-12-27T07:27:48.915Z,448.00
2018-12-27T07:28:48.908Z,460.00
2018-12-27T07:29:48.890Z,476.00
2018-12-27T07:30:48.878Z,504.00
2018-12-27T07:31:48.867Z,548.00
2018-12-27T07:32:48.863Z,564.00
2018-12-27T07:33:48.846Z,576.00
2018-12-27T07:34:56.245Z,592.00
2018-12-27T07:36:13.300Z,640.00
2018-12-27T07:37:13.287Z,660.00
2018-12-27T07:38:13.291Z,696.00
2018-12-27T07:39:13.265Z,724.00
2018-12-27T07:40:13.253Z,732.00
2018-12-27T07:41:13.241Z,736.00
2018-12-27T07:42:13.230Z,712.00
2018-12-27T07:43:13.219Z,712.00
2018-12-27T07:44:13.207Z,732.00
2018-12-27T07:45:13.203Z,736.00
2018-12-27T07:46:13.187Z,756.00
2018-12-27T07:47:13.174Z,776.00
2018-12-27T07:48:13.162Z,896.00
2018-12-27T07:49:13.149Z,976.00
2018-12-27T07:50:13.141Z,1044.00
2018-12-27T07:51:13.129Z,1124.00
2018-12-27T07:52:13.120Z,1132.00
2018-12-27T07:53:13.111Z,1240.00
2018-12-27T07:54:13.094Z,1388.00
2018-12-27T07:55:13.089Z,1112.00
2018-12-27T07:56:13.069Z,852.00
2018-12-27T07:57:13.059Z,596.00
2018-12-27T07:58:13.052Z,560.00
2018-12-27T07:59:13.035Z,548.00
2018-12-27T08:00:13.097Z,424.00
2018-12-27T08:01:13.013Z,288.00
2018-12-27T08:02:13.001Z,340.00
2018-12-27T08:03:12.989Z,356.00
2018-12-27T08:04:12.979Z,324.00
2018-12-27T08:05:12.969Z,328.00
2018-12-27T08:06:12.957Z,344.00
2018-12-27T08:07:12.945Z,356.00
2018-12-27T08:08:12.933Z,376.00
2018-12-27T08:09:12.928Z,432.00
2018-12-27T08:10:12.925Z,468.00
2018-12-27T08:11:12.897Z,520.00
2018-12-27T08:12:12.893Z,508.00
2018-12-27T08:13:12.881Z,488.00
2018-12-27T08:14:12.867Z,476.00
2018-12-27T08:15:12.859Z,480.00
2018-12-27T08:16:12.842Z,540.00
2018-12-27T08:17:12.858Z,532.00
2018-12-27T08:18:12.819Z,496.00
2018-12-27T08:19:12.810Z,500.00
2018-12-27T08:20:12.795Z,556.00
2018-12-27T08:21:12.823Z,544.00
2018-12-27T08:22:12.772Z,556.00
2018-12-27T08:23:12.775Z,584.00
2018-12-27T08:24:12.750Z,672.00
2018-12-27T08:25:12.739Z,660.00
2018-12-27T08:26:12.731Z,636.00
2018-12-27T08:27:12.715Z,680.00
2018-12-27T08:28:12.705Z,740.00
2018-12-27T08:29:12.692Z,672.00
2018-12-27T08:30:12.683Z,640.00
2018-12-27T08:31:12.675Z,672.00
2018-12-27T08:32:12.659Z,668.00
2018-12-27T08:33:12.649Z,656.00
2018-12-27T08:34:12.637Z,644.00
2018-12-27T08:35:12.625Z,656.00
2018-12-27T08:36:12.614Z,644.00
2018-12-27T08:37:12.603Z,612.00
2018-12-27T08:38:12.590Z,620.00
2018-12-27T08:39:12.579Z,556.00
2018-12-27T08:40:12.574Z,576.00
2018-12-27T08:41:12.556Z,536.00
2018-12-27T08:42:12.754Z,500.00
2018-12-27T08:43:12.535Z,532.00
2018-12-27T08:44:12.522Z,644.00
2018-12-27T08:45:12.514Z,644.00
2018-12-27T08:46:12.504Z,616.00
2018-12-27T08:47:12.487Z,680.00
2018-12-27T08:48:12.476Z,792.00
2018-12-27T08:49:12.466Z,784.00
2018-12-27T08:50:12.455Z,748.00
2018-12-27T08:51:12.443Z,692.00
2018-12-27T08:52:12.432Z,684.00
2018-12-27T08:53:12.420Z,776.00
2018-12-27T08:54:12.409Z,692.00
2018-12-27T08:55:12.396Z,624.00
2018-12-27T08:56:12.387Z,596.00
2018-12-27T08:57:12.376Z,640.00
2018-12-27T08:58:12.363Z,664.00
2018-12-27T08:59:12.352Z,620.00
2018-12-27T09:00:12.341Z,628.00
2018-12-27T09:01:12.331Z,652.00
2018-12-27T09:02:12.319Z,636.00
2018-12-27T09:03:12.311Z,640.00
2018-12-27T09:04:12.297Z,728.00
2018-12-27T09:05:18.716Z,760.00
2018-12-27T09:06:36.751Z,760.00
2018-12-27T09:07:36.738Z,760.00
2018-12-27T09:08:36.731Z,764.00
2018-12-27T09:09:36.722Z,680.00
2018-12-27T09:10:36.706Z,676.00
2018-12-27T09:11:36.696Z,640.00
2018-12-27T09:12:36.690Z,688.00
2018-12-27T09:13:36.675Z,688.00
2018-12-27T09:14:36.660Z,684.00
2018-12-27T09:15:36.654Z,660.00
2018-12-27T09:16:36.638Z,672.00
2018-12-27T09:17:36.631Z,676.00
2018-12-27T09:18:36.654Z,600.00
2018-12-27T09:19:36.614Z,668.00
2018-12-27T09:20:36.594Z,644.00
2018-12-27T09:21:36.582Z,748.00
2018-12-27T09:22:36.571Z,780.00
2018-12-27T09:23:36.564Z,704.00
2018-12-27T09:24:36.568Z,704.00
2018-12-27T09:25:36.577Z,688.00
2018-12-27T09:26:36.579Z,692.00
2018-12-27T09:27:36.522Z,652.00
2018-12-27T09:28:36.519Z,792.00
2018-12-27T09:29:36.522Z,688.00
2018-12-27T09:30:36.526Z,652.00
2018-12-27T09:31:36.531Z,600.00
2018-12-27T09:32:36.460Z,604.00
2018-12-27T09:33:36.452Z,724.00
2018-12-27T09:34:36.442Z,684.00
2018-12-27T09:35:36.427Z,800.00
2018-12-27T09:36:36.414Z,776.00
2018-12-27T09:37:36.402Z,716.00
2018-12-27T09:38:36.391Z,752.00
2018-12-27T09:39:36.386Z,872.00
2018-12-27T09:40:36.370Z,708.00
2018-12-27T09:41:36.359Z,772.00
2018-12-27T09:42:36.347Z,792.00
2018-12-27T09:43:36.343Z,744.00
2018-12-27T09:44:36.324Z,764.00
2018-12-27T09:45:36.311Z,804.00
2018-12-27T09:46:36.307Z,1004.00
2018-12-27T09:47:36.290Z,1016.00
2018-12-27T09:48:36.280Z,876.00
2018-12-27T09:49:36.274Z,800.00
2018-12-27T09:50:36.260Z,844.00
2018-12-27T09:51:36.246Z,744.00
2018-12-27T09:52:36.235Z,772.00
2018-12-27T09:53:36.226Z,948.00
2018-12-27T09:54:36.210Z,948.00
2018-12-27T09:55:36.200Z,840.00
2018-12-27T09:56:36.190Z,872.00
2018-12-27T09:57:36.182Z,880.00
2018-12-27T09:58:36.168Z,956.00
2018-12-27T09:59:36.160Z,1080.00
2018-12-27T10:00:36.143Z,1120.00
2018-12-27T10:01:36.132Z,1012.00
2018-12-27T10:02:36.126Z,1004.00
2018-12-27T10:03:36.110Z,1068.00
2018-12-27T10:04:36.099Z,1088.00
2018-12-27T10:05:36.087Z,1104.00
2018-12-27T10:06:36.075Z,1128.00
2018-12-27T10:07:36.065Z,1288.00
2018-12-27T10:08:36.060Z,1224.00
2018-12-27T10:09:36.041Z,1288.00
2018-12-27T10:10:36.041Z,1156.00
2018-12-27T10:11:36.022Z,1136.00
2018-12-27T10:12:36.014Z,1096.00
2018-12-27T10:13:36.005Z,1068.00
2018-12-27T10:14:35.989Z,1256.00
2018-12-27T10:15:35.982Z,1328.00
2018-12-27T10:16:35.970Z,1328.00
2018-12-27T10:17:35.953Z,1380.00
2018-12-27T10:18:35.941Z,1376.00
2018-12-27T10:19:35.929Z,1472.00
2018-12-27T10:20:35.918Z,1604.00
2018-12-27T10:21:35.906Z,1404.00
2018-12-27T10:22:35.901Z,1640.00
2018-12-27T10:23:35.885Z,1496.00
2018-12-27T10:24:35.876Z,1368.00
2018-12-27T10:25:35.863Z,1500.00
2018-12-27T10:26:35.852Z,1568.00
2018-12-27T10:27:35.846Z,1748.00
2018-12-27T10:28:35.834Z,1488.00
2018-12-27T10:29:35.820Z,1416.00
2018-12-27T10:30:35.806Z,1484.00
2018-12-27T10:31:35.796Z,1456.00
2018-12-27T10:32:35.786Z,1616.00
2018-12-27T10:33:35.774Z,1684.00
2018-12-27T10:34:35.761Z,1488.00
2018-12-27T10:35:41.129Z,1412.00
2018-12-27T10:36:35.739Z,1468.00
2018-12-27T10:37:35.728Z,1424.00
2018-12-27T10:38:35.723Z,1456.00
2018-12-27T10:39:35.706Z,1476.00
2018-12-27T10:40:35.698Z,1428.00
2018-12-27T10:41:35.689Z,1504.00
2018-12-27T10:42:35.678Z,1492.00
2018-12-27T10:43:35.663Z,1436.00
2018-12-27T10:44:35.653Z,1532.00
2018-12-27T10:45:35.641Z,1712.00
2018-12-27T10:46:35.635Z,1512.00
2018-12-27T10:47:35.622Z,1316.00
2018-12-27T10:48:35.609Z,1428.00
2018-12-27T10:49:35.597Z,1684.00
2018-12-27T10:50:35.586Z,1688.00
2018-12-27T10:51:35.573Z,1704.00
2018-12-27T10:52:35.562Z,1688.00
2018-12-27T10:53:35.557Z,1624.00
2018-12-27T10:54:35.540Z,1928.00
2018-12-27T10:55:35.532Z,1664.00
2018-12-27T10:56:35.519Z,1688.00
2018-12-27T10:57:35.508Z,1652.00
2018-12-27T10:58:35.501Z,1704.00
2018-12-27T10:59:35.485Z,1900.00
2018-12-27T11:00:35.474Z,1968.00
2018-12-27T11:01:35.471Z,1924.00
2018-12-27T11:02:35.452Z,1972.00
2018-12-27T11:03:35.445Z,2160.00
2018-12-27T11:04:35.430Z,2404.00
2018-12-27T11:05:35.418Z,2324.00
2018-12-27T11:06:35.407Z,2464.00
2018-12-27T11:07:35.399Z,2388.00
2018-12-27T11:08:35.385Z,2172.00
2018-12-27T11:09:35.375Z,2380.00
2018-12-27T11:10:35.361Z,2372.00
2018-12-27T11:11:35.351Z,2304.00
2018-12-27T11:12:35.340Z,2468.00
2018-12-27T11:13:35.334Z,2752.00
2018-12-27T11:14:35.319Z,2712.00
2018-12-27T11:15:35.308Z,2116.00
2018-12-27T11:16:35.301Z,1972.00
2018-12-27T11:17:35.285Z,1876.00
2018-12-27T11:18:35.275Z,2032.00
2018-12-27T11:19:35.262Z,1812.00
2018-12-27T11:20:35.251Z,1832.00
2018-12-27T11:21:35.246Z,1776.00
2018-12-27T11:22:35.233Z,1588.00
2018-12-27T11:23:35.220Z,1288.00
2018-12-27T11:24:35.213Z,1312.00
2018-12-27T11:25:35.204Z,1212.00
2018-12-27T11:26:35.185Z,1108.00
2018-12-27T11:27:35.175Z,1076.00
2018-12-27T11:28:35.167Z,1044.00
2018-12-27T11:29:35.156Z,1056.00
2018-12-27T11:30:35.142Z,1128.00
2018-12-27T11:31:35.133Z,1148.00
2018-12-27T11:32:35.118Z,1360.00
2018-12-27T11:33:35.112Z,1428.00
2018-12-27T11:34:35.097Z,1452.00
2018-12-27T11:35:35.087Z,1476.00
2018-12-27T11:36:35.076Z,1584.00
2018-12-27T11:37:35.065Z,1664.00
2018-12-27T11:38:35.055Z,1608.00
2018-12-27T11:39:35.042Z,1636.00
2018-12-27T11:40:35.034Z,1596.00
2018-12-27T11:41:35.024Z,1568.00
2018-12-27T11:42:35.008Z,1348.00
2018-12-27T11:43:34.998Z,1360.00
2018-12-27T11:44:34.987Z,1456.00
2018-12-27T11:45:34.979Z,1348.00
2018-12-27T11:46:34.964Z,1368.00
2018-12-27T11:47:34.951Z,1352.00
2018-12-27T11:48:34.940Z,1344.00
2018-12-27T11:49:34.930Z,1376.00
2018-12-27T11:50:34.928Z,1320.00
2018-12-27T11:51:34.907Z,1264.00
2018-12-27T11:52:34.903Z,1192.00
2018-12-27T11:53:34.892Z,1124.00
2018-12-27T11:54:34.899Z,1064.00
2018-12-27T11:55:34.863Z,1000.00
2018-12-27T11:56:34.861Z,1084.00
2018-12-27T11:57:34.842Z,1048.00
2018-12-27T11:58:34.830Z,1008.00
2018-12-27T11:59:34.819Z,1020.00
2018-12-27T12:00:34.810Z,1008.00
2018-12-27T12:01:34.808Z,1096.00
2018-12-27T12:02:34.790Z,1036.00
2018-12-27T12:03:34.774Z,996.00
2018-12-27T12:04:34.762Z,1112.00
2018-12-27T12:05:34.756Z,1176.00
2018-12-27T12:06:34.742Z,1204.00
2018-12-27T12:07:34.729Z,1204.00
2018-12-27T12:08:34.730Z,1216.00
2018-12-27T12:09:34.708Z,1236.00
2018-12-27T12:10:34.698Z,1256.00
2018-12-27T12:11:34.695Z,1256.00
2018-12-27T12:12:34.680Z,1148.00
2018-12-27T12:13:34.666Z,1188.00
2018-12-27T12:14:34.653Z,1144.00
2018-12-27T12:15:34.645Z,1244.00
2018-12-27T12:16:34.635Z,1264.00
2018-12-27T12:17:34.620Z,1196.00
2018-12-27T12:18:34.615Z,1388.00
2018-12-27T12:19:34.601Z,1204.00
2018-12-27T12:20:35.721Z,1316.00
2018-12-27T12:21:34.582Z,1440.00
2018-12-27T12:22:34.570Z,1412.00
2018-12-27T12:23:34.559Z,1460.00
2018-12-27T12:24:34.542Z,1396.00
2018-12-27T12:25:34.530Z,1336.00
2018-12-27T12:26:34.525Z,1260.00
2018-12-27T12:27:34.512Z,1396.00
2018-12-27T12:28:34.502Z,1352.00
2018-12-27T12:29:34.492Z,1500.00
2018-12-27T12:30:34.477Z,1496.00
2018-12-27T12:31:34.470Z,1396.00
2018-12-27T12:32:34.451Z,1616.00
2018-12-27T12:33:34.450Z,1644.00
2018-12-27T12:34:34.430Z,1636.00
2018-12-27T12:35:34.427Z,1604.00
2018-12-27T12:36:34.413Z,1780.00
2018-12-27T12:37:34.404Z,2000.00
2018-12-27T12:38:34.388Z,1504.00
2018-12-27T12:39:34.375Z,1508.00
2018-12-27T12:40:35.577Z,1604.00
2018-12-27T12:41:34.352Z,1740.00
2018-12-27T12:42:34.341Z,1812.00
2018-12-27T12:43:34.328Z,1412.00
2018-12-27T12:44:34.325Z,1584.00
2018-12-27T12:45:34.311Z,1640.00
2018-12-27T12:46:34.297Z,1908.00
2018-12-27T12:47:34.286Z,1812.00
2018-12-27T12:48:34.276Z,1680.00
2018-12-27T12:49:34.263Z,1712.00
2018-12-27T12:50:34.250Z,1888.00